Flight Track Log - Related Links

Times and Time Zones

All times are in EDT time to prevent confusion due to time zone crossing. See the LXJ262 flight status page for this flight to view local times or setup timezone preferences in your user account.

Time Position Orientation Groundspeed Altitude Reporting Facility
EDT Latitude Longitude Course Direction KTS MPH feet Rate Location/Type
Wed 07:58:15 PM 38.9833 -77.5333 108° East 243 280 4,400  Level Potomac TRACON
Wed 07:59:15 PM 39.0667 -77.5500 351° North 314 361 8,300 2,300 Climbing Potomac TRACON
Wed 08:00:15 PM 39.1333 -77.4833 38° Northeast 324 373 9,000 350 Climbing Potomac TRACON
Wed 08:01:15 PM 39.2000 -77.4000 44° Northeast 331 381 9,000 50 Level Potomac TRACON
Wed 08:02:15 PM 39.2333 -77.3000 67° East 319 367 9,100 1,900 Climbing Potomac TRACON
Wed 08:03:00 PM 39.2858 -76.8431 108° East  Level FlightAware Approximate
Wed 08:03:15 PM 39.2833 -77.1833 61° Northeast 337 388 12,800  Level Potomac TRACON
Wed 08:05:07 PM 39.3186 -76.9328 80° East 408 470 15,000 767 Climbing Washington Center
Wed 08:06:07 PM 39.2828 -76.7847 107° East 408 470 15,000 -50 Level Washington Center
Wed 08:07:07 PM 39.2694 -76.6453 97° East 408 470 14,900  Descending Washington Center
Wed 08:08:07 PM 39.2578 -76.5189 97° East 378 435 15,000 50 Climbing Washington Center
Wed 08:09:07 PM 39.2464 -76.3903 96° East 364 419 15,000  Level Washington Center
Wed 08:10:07 PM 39.2367 -76.2642 96° East 359 413 15,000 650 Level Washington Center
Wed 08:11:07 PM 39.2269 -76.1356 96° East 359 413 16,300 1,000 Climbing Washington Center
Wed 08:12:07 PM 39.2731 -76.0206 63° Northeast 338 389 17,000 350 Climbing Washington Center
Wed 08:13:07 PM 39.3692 -75.9486 30° Northeast 345 397 17,000  Level Washington Center
Wed 08:13:40 PM 39.4156 -75.9122 31° Northeast 375 432 17,000  Level FAA TRACON SMA TRACON (SMA)
Wed 08:14:00 PM 39.4408 -75.8919 32° Northeast 374 430 17,000  Level FAA TRACON SMA TRACON (SMA)
Wed 08:14:20 PM 39.4747 -75.8639 33° Northeast 383 441 17,000  Level FAA TRACON SMA TRACON (SMA)
Wed 08:14:40 PM 39.5061 -75.8392 31° Northeast 415 478 17,000  Level FAA TRACON SMA TRACON (SMA)
Wed 08:15:00 PM 39.5447 -75.8075 32° Northeast 424 488 17,000  Level FAA TRACON SMA TRACON (SMA)
Wed 08:15:23 PM 39.5825 -75.7767 32° Northeast 430 495 17,000 -419 Level FAA TRACON SMA TRACON (SMA)
Wed 08:15:43 PM 39.6158 -75.7497 32° Northeast 435 501 16,700 -1,459 Descending FAA TRACON SMA TRACON (SMA)
Wed 08:16:00 PM 39.6481 -75.7231 33° Northeast 442 509 16,100 -2,211 Descending FAA TRACON SMA TRACON (SMA)
Wed 08:16:21 PM 39.6803 -75.6964 32° Northeast 443 510 15,300 -2,341 Descending FAA TRACON SMA TRACON (SMA)
Wed 08:16:41 PM 39.7119 -75.6706 32° Northeast 439 505 14,500 -2,615 Descending FAA TRACON SMA TRACON (SMA)
Wed 08:17:00 PM 39.7497 -75.6400 32° Northeast 434 499 13,600 -2,154 Descending FAA TRACON SMA TRACON (SMA)
Wed 08:17:20 PM 39.7814 -75.6144 32° Northeast 421 484 13,100 -900 Descending FAA TRACON SMA TRACON (SMA)
Wed 08:17:40 PM 39.8108 -75.5889 34° Northeast 415 478 13,000 -450 Descending FAA TRACON SMA TRACON (SMA)
Wed 08:18:00 PM 39.8389 -75.5622 36° Northeast 408 470 12,800 -732 Descending FAA TRACON SMA TRACON (SMA)
Wed 08:18:21 PM 39.8747 -75.5281 36° Northeast 406 467 12,500 -1,024 Descending FAA TRACON SMA TRACON (SMA)
Wed 08:18:41 PM 39.9028 -75.5022 35° Northeast 407 468 12,100 -1,077 Descending FAA TRACON SMA TRACON (SMA)
Wed 08:19:00 PM 39.9308 -75.4761 36° Northeast 407 468 11,800 -1,077 Descending FAA TRACON SMA TRACON (SMA)
Wed 08:19:20 PM 39.9672 -75.4422 36° Northeast 408 470 11,400 -1,050 Descending FAA TRACON SMA TRACON (SMA)
Wed 08:19:40 PM 39.9958 -75.4156 36° Northeast 406 467 11,100 -600 Descending FAA TRACON SMA TRACON (SMA)
Wed 08:20:00 PM 40.0239 -75.3894 35° Northeast 400 460 11,000 -150 Descending FAA TRACON SMA TRACON (SMA)
Wed 08:20:20 PM 40.0550 -75.3592 37° Northeast 348 400 11,000  Level FAA TRACON SMA TRACON (SMA)
Wed 08:20:40 PM 40.0789 -75.3381 34° Northeast 343 395 11,000  Level FAA TRACON SMA TRACON (SMA)
Wed 08:21:00 PM 40.1022 -75.3164 35° Northeast 337 388 11,000  Level FAA TRACON SMA TRACON (SMA)
Wed 08:21:21 PM 40.1314 -75.2894 35° Northeast 337 388 11,000  Level FAA TRACON SMA TRACON (SMA)
Wed 08:21:41 PM 40.1558 -75.2664 36° Northeast 340 391 11,000  Level FAA TRACON SMA TRACON (SMA)
Wed 08:22:00 PM 40.1797 -75.2442 35° Northeast 342 394 11,000  Level FAA TRACON SMA TRACON (SMA)
Wed 08:22:20 PM 40.2089 -75.2169 35° Northeast 342 394 11,000  Level FAA TRACON SMA TRACON (SMA)
Wed 08:22:40 PM 40.2333 -75.1939 36° Northeast 345 397 11,000 -293 Level FAA TRACON SMA TRACON (SMA)
Wed 08:23:01 PM 40.2586 -75.1703 35° Northeast 353 406 10,800 -1,317 Descending FAA TRACON SMA TRACON (SMA)
Wed 08:23:21 PM 40.2894 -75.1417 35° Northeast 354 407 10,100 -2,000 Descending FAA TRACON SMA TRACON (SMA)
Wed 08:23:40 PM 40.3139 -75.1183 36° Northeast 352 405 9,500 -1,692 Descending FAA TRACON SMA TRACON (SMA)
Wed 08:24:00 PM 40.3342 -75.0925 44° Northeast 344 396 9,000 -1,650 Descending FAA TRACON SMA TRACON (SMA)
Wed 08:24:20 PM 40.3539 -75.0650 47° Northeast 323 372 8,400 -1,950 Descending FAA TRACON SMA TRACON (SMA)
Wed 08:24:40 PM 40.3767 -75.0317 48° Northeast 327 376 7,700 -1,800 Descending FAA TRACON SMA TRACON (SMA)
Wed 08:25:00 PM 40.3956 -75.0067 45° Northeast 313 360 7,200 -1,050 Descending FAA TRACON SMA TRACON (SMA)
Wed 08:25:20 PM 40.4139 -74.9803 48° Northeast 315 362 7,000 -300 Descending FAA TRACON SMA TRACON (SMA)
Wed 08:25:40 PM 40.4361 -74.9506 46° Northeast 312 359 7,000 -293 Level FAA TRACON SMA TRACON (SMA)
Wed 08:26:01 PM 40.4547 -74.9228 49° Northeast 313 360 6,800 -732 Descending FAA TRACON SMA TRACON (SMA)
Wed 08:26:21 PM 40.4753 -74.8931 48° Northeast 315 362 6,500 -1,050 Descending FAA TRACON SMA TRACON (SMA)
Wed 08:26:41 PM 40.4961 -74.8653 45° Northeast 313 360 6,100 -1,077 Descending FAA TRACON SMA TRACON (SMA)
Wed 08:27:00 PM 40.5144 -74.8389 48° Northeast 313 360 5,800 -769 Descending FAA TRACON SMA TRACON (SMA)
Wed 08:27:20 PM 40.5283 -74.8206 45° Northeast 310 357 5,600 -900 Descending FAA TRACON SMA TRACON (SMA)
Wed 08:27:40 PM 40.5500 -74.7833 53° Northeast 312 359 5,200 -1,050 Descending New York TRACON
Wed 08:28:40 PM 40.6167 -74.7000 43° Northeast 312 359 4,200 -550 Descending New York TRACON
Wed 08:29:40 PM 40.6833 -74.6500 30° Northeast 297 342 4,100 -53 Descending New York TRACON
Wed 08:30:34 PM 40.7500 -74.6000 30° Northeast 289 333 4,100 -316 Level New York TRACON
Wed 08:31:34 PM 40.8167 -74.5500 30° Northeast 251 289 3,500 -500 Descending New York TRACON
Wed 08:32:34 PM 40.8667 -74.5000 37° Northeast 245 282 3,100 -190 Descending New York TRACON
Wed 08:33:40 PM 40.9167 -74.4333 45° Northeast 260 299 3,100 -350 Level New York TRACON
Wed 08:34:34 PM 40.9000 -74.3667 108° East 202 232 2,400 -842 Descending New York TRACON
Wed 08:35:34 PM 40.8500 -74.3667 180° South 166 191 1,500 -619 Descending New York TRACON
Wed 08:36:40 PM 40.8167 -74.4000 217° Southwest 154 177 1,100 -364 Descending New York TRACON
Wed 08:38:00 PM 40.8322 -74.2437 62° Northeast  Level Estimated
Wed 08:45:00 PM 40.8501 -74.0608 57° Northeast  Level Estimated
Wed 08:46:00 PM 40.8501 -74.0608 57° Northeast  Level Estimated
Wed 08:47:00 PM 40.8501 -74.0608 57° Northeast  Level Estimated
Wed 08:48:00 PM 40.8501 -74.0608 57° Northeast  Level Estimated
Wed 08:49:00 PM 40.8501 -74.0608 57° Northeast  Level Estimated
Wed 08:50:00 PM 40.8501 -74.0608 57° Northeast  Level Estimated
Wed 08:51:00 PM 40.8501 -74.0608 57° Northeast  Level Estimated
Wed 08:52:00 PM 40.8501 -74.0608 57° Northeast  Level Estimated
Wed 08:53:00 PM 40.8501 -74.0608 57° Northeast  Level Estimated

Login

Don't have an account? Register now (free) for customized features, flight alerts, and more!